Time;durP1;ratioP1;P1;durP2;ratioP2;P2;SDS_P1;SDS_P2;PMS_P1;PMS_P2;Temp;Humidity;BMP_temperature;BMP_pressure;BME280_temperature;BME280_humidity;BME280_pressure;Samples;Min_cycle;Max_cycle;Signal;HPM_P1;HPM_P2
2022/10/15 00:01:10;;;;;;;4.38;3.55;;;21.10;57.60;;;;;;5053949;28;20096;-49
2022/10/15 00:03:38;;;;;;;5.10;4.00;;;21.10;57.60;;;;;;5053540;28;20134;-47
2022/10/15 00:06:14;;;;;;;4.97;3.80;;;21.00;57.50;;;;;;5032967;28;20153;-52
2022/10/15 00:08:41;;;;;;;4.47;3.50;;;21.10;57.50;;;;;;5051777;28;20070;-47
2022/10/15 00:11:16;;;;;;;4.82;3.70;;;21.10;57.50;;;;;;5049148;28;20146;-47
2022/10/15 00:13:43;;;;;;;4.10;3.28;;;21.00;57.40;;;;;;5039067;28;20080;-48
2022/10/15 00:16:13;;;;;;;4.50;3.25;;;21.10;57.40;;;;;;5035274;28;20116;-47
2022/10/15 00:18:39;;;;;;;4.53;3.10;;;21.00;57.30;;;;;;5037999;28;20038;-47
2022/10/15 00:21:07;;;;;;;4.28;2.75;;;21.00;57.30;;;;;;5054037;28;20543;-47
2022/10/15 00:23:33;;;;;;;4.65;2.97;;;21.00;57.20;;;;;;5038804;28;20029;-49
2022/10/15 00:26:06;;;;;;;4.68;3.40;;;21.00;57.20;;;;;;5043966;28;20334;-50
2022/10/15 00:28:32;;;;;;;3.67;3.00;;;21.00;57.20;;;;;;5052785;28;20491;-50
2022/10/15 00:31:05;;;;;;;4.10;3.17;;;21.00;57.10;;;;;;5054483;28;20056;-45
2022/10/15 00:33:31;;;;;;;4.15;3.00;;;21.00;57.10;;;;;;5052590;28;20064;-47
2022/10/15 00:35:58;;;;;;;5.05;2.90;;;21.00;57.00;;;;;;5054441;28;20037;-44
2022/10/15 00:38:24;;;;;;;3.38;3.00;;;21.00;57.00;;;;;;5054892;28;20056;-48
2022/10/15 00:40:50;;;;;;;3.95;3.00;;;21.00;57.00;;;;;;5055694;28;20029;-48
2022/10/15 00:43:15;;;;;;;3.53;2.65;;;21.00;57.00;;;;;;5054252;28;20084;-47
2022/10/15 00:45:42;;;;;;;4.35;2.55;;;21.00;57.00;;;;;;5041586;28;20112;-49
2022/10/15 00:48:09;;;;;;;3.00;2.50;;;21.00;56.90;;;;;;5045364;28;20072;-45
2022/10/15 00:50:35;;;;;;;3.40;2.53;;;21.00;56.90;;;;;;5053595;28;20052;-47
2022/10/15 00:53:04;;;;;;;2.78;2.38;;;21.00;56.80;;;;;;5042590;28;20452;-45
2022/10/15 00:55:35;;;;;;;3.17;2.50;;;21.00;56.70;;;;;;5054372;28;20491;-45
2022/10/15 00:58:05;;;;;;;3.10;2.80;;;20.90;56.70;;;;;;5054454;28;20396;-46
2022/10/15 01:00:32;;;;;;;3.03;2.67;;;20.90;56.60;;;;;;5042032;28;20038;-48
2022/10/15 01:02:58;;;;;;;3.70;2.70;;;20.90;56.50;;;;;;5045386;28;20037;-49
2022/10/15 01:05:24;;;;;;;3.15;2.80;;;20.90;56.50;;;;;;5041935;28;20044;-47
2022/10/15 01:07:50;;;;;;;3.10;2.70;;;20.90;56.50;;;;;;5037172;28;20048;-46
2022/10/15 01:10:18;;;;;;;3.10;2.33;;;20.90;56.50;;;;;;5050523;28;20049;-45
2022/10/15 01:13:19;;;;;;;2.72;2.47;;;20.90;56.40;;;;;;5051802;28;20032;-46
2022/10/15 01:16:04;;;;;;;2.60;2.13;;;20.90;56.40;;;;;;5055816;28;20036;-47
2022/10/15 01:18:42;;;;;;;3.75;2.92;;;20.90;56.30;;;;;;5054880;28;20033;-47
2022/10/15 01:21:36;;;;;;;2.92;2.42;;;20.90;56.30;;;;;;5057071;28;20029;-46
2022/10/15 01:24:15;;;;;;;2.85;2.42;;;20.90;56.30;;;;;;5057118;28;20033;-48
2022/10/15 01:27:15;;;;;;;4.13;2.38;;;20.90;56.30;;;;;;5057163;28;20029;-47
2022/10/15 01:29:45;;;;;;;2.80;2.42;;;20.80;56.20;;;;;;5057680;28;20040;-45
2022/10/15 01:33:02;;;;;;;2.80;2.40;;;20.90;56.10;;;;;;5055888;28;20032;-47
2022/10/15 01:35:48;;;;;;;2.30;2.10;;;20.90;56.10;;;;;;4976989;28;20402;-48
2022/10/15 01:38:26;;;;;;;3.08;2.42;;;20.90;56.10;;;;;;5057389;28;20086;-49
2022/10/15 01:41:07;;;;;;;2.63;1.95;;;20.80;56.00;;;;;;5056068;28;20029;-46
2022/10/15 01:44:03;;;;;;;3.17;2.20;;;20.80;56.00;;;;;;5057312;28;20038;-49
2022/10/15 01:46:48;;;;;;;2.15;1.95;;;20.90;56.00;;;;;;5037154;28;20463;-48
2022/10/15 01:49:25;;;;;;;3.13;2.25;;;20.80;56.00;;;;;;5037025;28;20021;-46
2022/10/15 01:51:53;;;;;;;2.92;2.22;;;20.80;56.00;;;;;;5050885;28;20032;-47
2022/10/15 01:54:22;;;;;;;2.42;2.00;;;20.80;56.00;;;;;;5056071;28;20045;-50
2022/10/15 01:56:52;;;;;;;2.42;2.03;;;20.80;56.00;;;;;;5056632;28;20068;-50
2022/10/15 01:59:26;;;;;;;3.45;2.70;;;20.80;56.00;;;;;;5056486;28;20087;-46
2022/10/15 02:01:52;;;;;;;2.58;2.28;;;20.80;56.00;;;;;;5055581;28;20043;-46
2022/10/15 02:04:24;;;;;;;2.70;2.10;;;20.80;56.00;;;;;;5035342;28;20029;-48
2022/10/15 02:07:08;;;;;;;2.58;2.28;;;20.80;56.00;;;;;;5046368;28;20107;-46
2022/10/15 02:09:52;;;;;;;2.60;2.27;;;20.80;55.90;;;;;;5043682;28;20084;-46
2022/10/15 02:12:37;;;;;;;2.33;2.00;;;20.80;56.00;;;;;;5053092;28;20295;-48
2022/10/15 02:15:06;;;;;;;;;;;20.80;55.90;;;;;;5054343;28;20554;-46
2022/10/15 02:17:45;;;;;;;3.22;2.50;;;20.80;56.00;;;;;;5037110;28;20315;-48
2022/10/15 02:20:27;;;;;;;2.35;2.15;;;20.80;56.00;;;;;;5045824;28;20029;-51
2022/10/15 02:23:06;;;;;;;2.40;2.00;;;20.80;56.00;;;;;;5054208;28;20460;-48
2022/10/15 02:25:34;;;;;;;3.20;2.30;;;20.80;56.00;;;;;;5041906;28;20048;-52
2022/10/15 02:28:02;;;;;;;3.53;2.60;;;20.80;56.00;;;;;;5056140;28;20037;-51
2022/10/15 02:30:29;;;;;;;2.83;2.13;;;20.70;55.90;;;;;;5054912;28;20052;-47
2022/10/15 02:32:57;;;;;;;3.00;2.47;;;20.70;55.90;;;;;;5056432;28;20116;-51
2022/10/15 02:35:25;;;;;;;3.55;2.83;;;20.80;56.00;;;;;;5056664;28;20124;-49
2022/10/15 02:37:53;;;;;;;3.28;2.45;;;20.70;55.90;;;;;;5057142;28;20037;-51
2022/10/15 02:40:26;;;;;;;2.85;2.55;;;20.70;55.90;;;;;;5056088;28;20028;-52
2022/10/15 02:42:53;;;;;;;2.50;2.20;;;20.80;56.00;;;;;;5055927;28;20060;-50
2022/10/15 02:45:20;;;;;;;3.88;2.50;;;20.80;55.90;;;;;;5049377;28;20021;-49
2022/10/15 02:47:46;;;;;;;2.30;2.08;;;20.80;55.90;;;;;;5056425;28;20059;-49
2022/10/15 02:50:11;;;;;;;2.03;1.85;;;20.70;55.80;;;;;;5055529;28;20064;-50
2022/10/15 02:52:38;;;;;;;2.58;2.00;;;20.70;55.80;;;;;;5055617;28;20021;-49
2022/10/15 02:55:05;;;;;;;2.17;1.88;;;20.70;55.80;;;;;;5051774;28;20357;-48
2022/10/15 02:57:32;;;;;;;2.53;2.05;;;20.70;55.80;;;;;;5051996;28;20048;-49
2022/10/15 02:59:59;;;;;;;2.38;2.00;;;20.70;55.80;;;;;;5036095;28;20044;-45
2022/10/15 03:02:25;;;;;;;2.28;1.92;;;20.70;55.70;;;;;;5035591;28;20029;-47
2022/10/15 03:04:51;;;;;;;2.58;1.98;;;20.70;55.80;;;;;;5035575;28;20356;-45
2022/10/15 03:07:17;;;;;;;2.72;2.25;;;20.70;55.70;;;;;;5035165;28;20043;-45
2022/10/15 03:09:43;;;;;;;2.42;2.00;;;20.70;55.70;;;;;;5052108;28;20097;-50
2022/10/15 03:12:09;;;;;;;2.38;1.90;;;20.70;55.70;;;;;;5054149;28;20045;-46
2022/10/15 03:14:35;;;;;;;2.75;2.10;;;20.70;55.70;;;;;;5043536;28;20049;-45
2022/10/15 03:17:01;;;;;;;2.90;2.33;;;20.70;55.60;;;;;;5055249;28;20025;-46
2022/10/15 03:19:28;;;;;;;2.63;2.10;;;20.70;55.60;;;;;;5052472;28;20025;-46
2022/10/15 03:21:54;;;;;;;3.25;2.33;;;20.70;55.60;;;;;;5054312;28;20091;-48
2022/10/15 03:24:19;;;;;;;3.42;2.30;;;20.70;55.60;;;;;;5054527;28;20040;-47
2022/10/15 03:26:45;;;;;;;2.40;1.98;;;20.70;55.60;;;;;;5054559;28;20093;-45
2022/10/15 03:29:11;;;;;;;2.78;2.33;;;20.70;55.60;;;;;;5054990;28;20402;-48
2022/10/15 03:31:43;;;;;;;2.50;2.30;;;20.70;55.60;;;;;;5054034;28;20353;-45
2022/10/15 03:34:09;;;;;;;2.92;2.03;;;20.70;55.60;;;;;;5053957;28;20025;-49
2022/10/15 03:36:35;;;;;;;2.92;2.25;;;20.70;55.60;;;;;;5053132;28;20029;-49
2022/10/15 03:39:04;;;;;;;2.53;2.20;;;20.70;55.50;;;;;;5054634;28;20398;-46
2022/10/15 03:41:30;;;;;;;4.22;2.38;;;20.70;55.50;;;;;;5045353;28;20025;-47
2022/10/15 03:44:01;;;;;;;2.75;2.30;;;20.70;55.50;;;;;;5038161;28;20039;-46
2022/10/15 03:46:27;;;;;;;3.08;2.30;;;20.60;55.50;;;;;;5053630;28;20513;-47
2022/10/15 03:48:53;;;;;;;3.25;2.35;;;20.70;55.50;;;;;;5054226;28;20033;-49
2022/10/15 03:51:19;;;;;;;2.50;2.03;;;20.70;55.50;;;;;;5055416;28;20032;-47
2022/10/15 03:53:46;;;;;;;2.72;2.17;;;20.70;55.50;;;;;;5053628;28;20037;-45
2022/10/15 03:56:13;;;;;;;2.88;2.05;;;20.60;55.40;;;;;;5045698;28;20033;-46
2022/10/15 03:58:39;;;;;;;2.47;2.20;;;20.60;55.40;;;;;;5034310;28;20041;-47
2022/10/15 04:01:14;;;;;;;3.15;2.10;;;20.60;55.40;;;;;;5034594;28;20127;-46
2022/10/15 04:03:40;;;;;;;2.35;2.15;;;20.60;55.40;;;;;;5051146;28;20040;-48
2022/10/15 04:06:07;;;;;;;3.08;2.20;;;20.60;55.40;;;;;;5054309;28;20081;-49
2022/10/15 04:08:34;;;;;;;2.40;2.10;;;20.60;56.00;;;;;;5050883;28;20056;-47
2022/10/15 04:11:06;;;;;;;2.67;2.08;;;20.60;55.40;;;;;;5053841;28;20430;-45
2022/10/15 04:13:32;;;;;;;3.00;2.30;;;20.60;55.40;;;;;;5054037;28;20045;-47
2022/10/15 04:15:58;;;;;;;2.53;2.05;;;20.60;55.40;;;;;;5054087;28;20109;-48
2022/10/15 04:18:24;;;;;;;2.72;2.30;;;20.60;55.40;;;;;;5053201;28;20124;-46
2022/10/15 04:20:53;;;;;;;2.50;2.20;;;20.70;55.40;;;;;;5052783;28;20061;-48
2022/10/15 04:23:21;;;;;;;3.15;2.42;;;20.60;55.40;;;;;;5052906;28;20094;-48
2022/10/15 04:26:06;;;;;;;2.03;1.83;;;20.60;55.40;;;;;;5055198;28;20048;-45
2022/10/15 04:28:32;;;;;;;2.30;1.77;;;20.60;55.40;;;;;;5053089;28;20033;-44
2022/10/15 04:31:00;;;;;;;3.65;2.30;;;20.60;55.40;;;;;;5050621;28;20029;-45
2022/10/15 04:33:26;;;;;;;2.50;2.10;;;20.60;55.40;;;;;;5049906;28;20036;-46
2022/10/15 04:36:00;;;;;;;2.65;2.45;;;20.60;55.40;;;;;;5044547;28;20026;-47
2022/10/15 04:38:42;;;;;;;3.15;2.17;;;20.60;55.40;;;;;;5043554;28;20036;-48
2022/10/15 04:41:10;;;;;;;2.67;2.30;;;20.60;55.40;;;;;;5053894;28;20487;-48
2022/10/15 04:43:48;;;;;;;4.32;2.30;;;20.60;55.40;;;;;;5052808;28;20025;-47
2022/10/15 04:46:14;;;;;;;2.55;2.20;;;20.60;55.40;;;;;;5054915;28;20040;-46
2022/10/15 04:48:40;;;;;;;2.50;2.10;;;20.60;55.40;;;;;;5054366;28;20025;-48
2022/10/15 04:51:15;;;;;;;3.05;2.58;;;20.60;55.40;;;;;;5040380;28;20433;-48
2022/10/15 04:54:00;;;;;;;3.40;2.90;;;20.60;55.40;;;;;;5037895;28;20037;-48
2022/10/15 04:56:27;;;;;;;3.00;2.40;;;20.60;55.40;;;;;;5045381;28;20039;-48
2022/10/15 04:58:54;;;;;;;2.78;2.47;;;20.60;55.40;;;;;;5056228;28;20032;-46
2022/10/15 05:01:22;;;;;;;3.25;2.50;;;20.60;55.50;;;;;;5057800;28;20043;-46
2022/10/15 05:03:55;;;;;;;3.13;2.45;;;20.60;55.40;;;;;;5056526;28;20081;-49
2022/10/15 05:06:21;;;;;;;2.60;2.40;;;20.50;55.40;;;;;;5051719;28;20026;-45
2022/10/15 05:08:52;;;;;;;2.63;2.30;;;20.60;55.50;;;;;;5044150;28;20017;-47
2022/10/15 05:11:26;;;;;;;2.97;2.25;;;20.50;55.40;;;;;;5057072;28;20095;-48
2022/10/15 05:13:55;;;;;;;4.63;2.70;;;20.50;55.40;;;;;;5057539;28;20036;-48
2022/10/15 05:16:24;;;;;;;3.03;2.50;;;20.50;55.50;;;;;;5057293;28;20430;-45
2022/10/15 05:18:54;;;;;;;3.17;2.45;;;20.60;55.60;;;;;;5057322;28;20099;-45
2022/10/15 05:21:20;;;;;;;2.83;2.33;;;20.50;55.50;;;;;;5042425;28;20048;-46
2022/10/15 05:23:50;;;;;;;2.95;2.15;;;20.50;55.50;;;;;;5037181;28;20039;-46
2022/10/15 05:26:36;;;;;;;3.00;2.45;;;20.50;55.60;;;;;;5034691;28;20033;-48
2022/10/15 05:29:03;;;;;;;3.15;2.75;;;20.60;55.60;;;;;;5038002;28;20040;-51
2022/10/15 05:31:31;;;;;;;2.85;2.55;;;20.50;55.60;;;;;;5038742;28;20026;-52
2022/10/15 05:34:11;;;;;;;3.20;2.63;;;20.50;55.70;;;;;;5053773;28;20021;-52
2022/10/15 05:36:44;;;;;;;4.43;2.70;;;20.50;55.80;;;;;;5057199;28;20037;-52
2022/10/15 05:39:11;;;;;;;3.25;2.63;;;20.50;55.80;;;;;;5057035;28;20352;-51
2022/10/15 05:41:42;;;;;;;3.13;2.25;;;20.50;55.80;;;;;;5056925;28;20036;-49
2022/10/15 05:44:08;;;;;;;3.10;2.55;;;20.50;55.90;;;;;;5047961;28;20033;-48
2022/10/15 05:46:33;;;;;;;3.10;2.80;;;20.50;55.90;;;;;;5057643;28;20451;-47
2022/10/15 05:48:59;;;;;;;3.22;2.63;;;20.50;55.90;;;;;;5043573;28;20044;-46
2022/10/15 05:51:27;;;;;;;2.97;2.55;;;20.50;56.00;;;;;;5037091;28;20076;-50
2022/10/15 05:53:59;;;;;;;3.80;3.00;;;20.50;56.10;;;;;;5036511;28;20029;-51
2022/10/15 05:56:26;;;;;;;3.63;3.22;;;20.50;56.10;;;;;;5052358;28;20033;-49
2022/10/15 05:58:52;;;;;;;2.97;2.63;;;20.50;56.10;;;;;;5057451;28;20036;-50
2022/10/15 06:01:21;;;;;;;3.15;2.67;;;20.50;56.20;;;;;;5055945;28;20029;-47
2022/10/15 06:03:50;;;;;;;4.32;3.10;;;20.50;56.20;;;;;;5055489;28;20111;-49
2022/10/15 06:06:20;;;;;;;6.30;2.85;;;20.50;56.20;;;;;;5057330;28;20436;-47
2022/10/15 06:08:46;;;;;;;3.45;2.83;;;20.50;56.20;;;;;;5055390;28;20025;-46
2022/10/15 06:11:12;;;;;;;3.47;2.83;;;20.50;56.30;;;;;;5055772;28;20403;-48
2022/10/15 06:13:40;;;;;;;3.85;2.60;;;20.50;56.30;;;;;;5056775;28;20043;-45
2022/10/15 06:16:06;;;;;;;3.35;2.33;;;20.50;56.30;;;;;;5046123;28;20427;-46
2022/10/15 06:18:32;;;;;;;4.53;2.60;;;20.50;56.30;;;;;;5039947;28;20041;-48
2022/10/15 06:20:59;;;;;;;3.17;2.53;;;20.50;56.40;;;;;;5055126;28;20407;-45
2022/10/15 06:23:24;;;;;;;2.97;2.65;;;20.50;56.40;;;;;;5056400;28;20037;-49
2022/10/15 06:25:50;;;;;;;4.03;3.10;;;20.50;56.50;;;;;;5056901;28;20037;-48
2022/10/15 06:28:16;;;;;;;3.50;3.17;;;20.50;56.50;;;;;;5054160;28;20033;-46
2022/10/15 06:30:43;;;;;;;4.18;3.10;;;20.50;56.60;;;;;;5057148;28;20040;-49
2022/10/15 06:33:09;;;;;;;3.20;2.78;;;20.50;56.60;;;;;;5055954;28;20029;-47
2022/10/15 06:35:35;;;;;;;4.47;3.10;;;20.50;56.80;;;;;;5051903;28;20041;-46
2022/10/15 06:38:02;;;;;;;3.20;2.83;;;20.50;56.90;;;;;;5052957;28;20040;-47
2022/10/15 06:40:28;;;;;;;3.67;3.10;;;20.50;56.90;;;;;;5056850;28;20116;-48
2022/10/15 06:42:54;;;;;;;4.75;3.25;;;20.50;57.00;;;;;;5054927;28;20036;-46
2022/10/15 06:45:20;;;;;;;5.53;3.83;;;20.50;57.00;;;;;;5056706;28;20029;-50
2022/10/15 06:47:45;;;;;;;4.70;3.53;;;20.50;57.10;;;;;;5055247;28;20396;-49
2022/10/15 06:50:12;;;;;;;6.47;3.40;;;20.50;57.20;;;;;;5056439;28;20052;-52
2022/10/15 06:52:38;;;;;;;4.95;3.88;;;20.50;57.20;;;;;;5054401;28;20029;-49
2022/10/15 06:55:05;;;;;;;6.05;3.63;;;20.50;57.20;;;;;;5054530;28;20028;-48
2022/10/15 06:57:31;;;;;;;4.32;3.20;;;20.50;57.30;;;;;;5049815;28;20029;-46
2022/10/15 06:59:56;;;;;;;5.75;3.90;;;20.50;57.30;;;;;;5051490;28;20035;-46
2022/10/15 07:02:23;;;;;;;4.68;3.30;;;20.50;57.30;;;;;;5051475;28;20086;-49
2022/10/15 07:04:50;;;;;;;5.28;3.50;;;20.50;57.30;;;;;;5055402;28;20380;-45
2022/10/15 07:07:19;;;;;;;4.90;3.90;;;20.50;57.40;;;;;;5055861;28;20036;-63
2022/10/15 07:09:46;;;;;;;5.07;3.45;;;20.50;57.40;;;;;;5049237;28;20029;-50
2022/10/15 07:12:12;;;;;;;3.65;3.33;;;20.50;57.50;;;;;;5055974;28;20123;-48
2022/10/15 07:14:44;;;;;;;3.83;3.20;;;20.50;57.40;;;;;;5053280;28;20119;-51
2022/10/15 07:17:10;;;;;;;3.85;3.28;;;20.50;57.50;;;;;;5056200;28;20112;-46
2022/10/15 07:19:36;;;;;;;4.55;3.45;;;20.50;57.50;;;;;;5046311;28;20056;-49
2022/10/15 07:22:02;;;;;;;4.80;3.35;;;20.50;57.60;;;;;;5056373;28;20051;-50
2022/10/15 07:24:28;;;;;;;4.60;3.63;;;20.50;57.60;;;;;;5053035;28;20090;-49
2022/10/15 07:26:53;;;;;;;4.43;3.35;;;20.50;57.70;;;;;;5051912;28;20459;-45
2022/10/15 07:29:19;;;;;;;5.97;3.60;;;20.50;57.70;;;;;;5046485;28;20040;-46
2022/10/15 07:31:46;;;;;;;4.25;3.08;;;20.50;57.70;;;;;;5052687;28;20345;-47
2022/10/15 07:34:15;;;;;;;5.53;3.78;;;20.50;57.70;;;;;;5054819;28;20041;-46
2022/10/15 07:36:41;;;;;;;4.93;3.90;;;20.60;57.70;;;;;;5055544;28;20058;-47
2022/10/15 07:39:08;;;;;;;4.93;3.65;;;20.60;57.70;;;;;;5055653;28;20065;-45
2022/10/15 07:41:34;;;;;;;5.60;3.40;;;20.50;57.70;;;;;;5039379;28;20056;-47
2022/10/15 07:43:59;;;;;;;4.07;3.50;;;20.60;57.80;;;;;;5049509;28;20032;-45
2022/10/15 07:46:25;;;;;;;4.13;3.30;;;20.50;57.80;;;;;;5051847;28;20037;-49
2022/10/15 07:48:54;;;;;;;4.55;3.83;;;20.50;57.80;;;;;;5055494;28;20041;-48
2022/10/15 07:51:20;;;;;;;4.85;3.28;;;20.60;57.90;;;;;;5049384;28;20028;-49
2022/10/15 07:53:46;;;;;;;4.07;3.45;;;20.60;57.80;;;;;;5049358;28;20040;-47
2022/10/15 07:56:14;;;;;;;5.28;3.90;;;20.60;57.80;;;;;;5050395;28;20348;-49
2022/10/15 07:58:41;;;;;;;4.55;3.60;;;20.60;57.90;;;;;;5050361;28;20033;-47
2022/10/15 08:01:09;;;;;;;5.18;4.25;;;20.60;57.80;;;;;;5051295;28;20108;-45
2022/10/15 08:03:36;;;;;;;5.88;3.97;;;20.60;57.80;;;;;;5046984;28;20024;-47
2022/10/15 08:06:05;;;;;;;4.57;3.67;;;20.60;57.80;;;;;;5050098;28;20041;-47
2022/10/15 08:08:32;;;;;;;5.55;3.95;;;20.60;57.80;;;;;;5050078;28;20028;-50
2022/10/15 08:11:03;;;;;;;5.10;4.22;;;20.60;57.80;;;;;;5050290;28;20064;-48
2022/10/15 08:13:28;;;;;;;4.68;3.92;;;20.60;57.90;;;;;;5047922;28;20032;-47
2022/10/15 08:15:56;;;;;;;4.50;3.50;;;20.60;57.90;;;;;;5048914;28;20037;-45
2022/10/15 08:18:22;;;;;;;5.20;4.10;;;20.60;57.90;;;;;;5051214;28;20120;-50
2022/10/15 08:20:48;;;;;;;5.80;4.10;;;20.60;57.90;;;;;;5049194;28;20052;-47
2022/10/15 08:23:15;;;;;;;4.93;4.00;;;20.60;58.00;;;;;;5048900;28;20802;-50
2022/10/15 08:25:42;;;;;;;5.53;3.90;;;20.60;57.90;;;;;;5046917;28;20120;-50
2022/10/15 08:28:11;;;;;;;6.72;3.90;;;20.60;58.00;;;;;;5050180;28;20112;-48
2022/10/15 08:30:37;;;;;;;4.68;3.90;;;20.60;57.90;;;;;;5052694;28;20393;-48
2022/10/15 08:33:09;;;;;;;5.72;3.85;;;20.60;57.90;;;;;;5053092;28;20033;-45
2022/10/15 08:35:37;;;;;;;5.18;3.75;;;20.70;58.00;;;;;;5054815;28;20052;-47
2022/10/15 08:38:04;;;;;;;4.68;3.70;;;20.60;57.90;;;;;;5054944;28;20079;-52
2022/10/15 08:40:31;;;;;;;4.70;3.63;;;20.70;58.00;;;;;;5052507;28;20099;-51
2022/10/15 08:42:57;;;;;;;5.63;3.90;;;20.70;58.00;;;;;;5043452;28;20029;-53
2022/10/15 08:45:37;;;;;;;5.78;3.72;;;20.70;58.00;;;;;;5053324;28;20387;-51
2022/10/15 08:48:09;;;;;;;4.30;3.38;;;20.70;58.00;;;;;;5042124;28;20021;-50
2022/10/15 08:50:47;;;;;;;5.18;3.40;;;20.70;57.90;;;;;;5049861;28;20094;-51
2022/10/15 08:53:19;;;;;;;6.38;3.70;;;20.70;57.90;;;;;;5048998;28;20036;-51
2022/10/15 08:55:49;;;;;;;3.95;3.55;;;20.70;57.90;;;;;;5049921;28;20040;-53
2022/10/15 08:58:45;;;;;;;5.45;3.42;;;20.80;57.90;;;;;;5047798;28;20033;-51
2022/10/15 09:01:28;;;;;;;4.03;3.17;;;20.80;57.90;;;;;;5046628;28;20033;-53
2022/10/15 09:04:23;;;;;;;4.15;3.03;;;20.80;57.90;;;;;;5049642;28;20029;-50
2022/10/15 09:06:54;;;;;;;3.47;2.88;;;20.80;57.90;;;;;;5049385;28;20028;-48
2022/10/15 09:09:34;;;;;;;4.60;3.30;;;20.80;57.90;;;;;;5045025;28;20110;-49
2022/10/15 09:12:11;;;;;;;4.95;2.90;;;20.80;58.20;;;;;;5047895;28;20049;-48
2022/10/15 09:14:40;;;;;;;5.35;3.70;;;20.80;58.30;;;;;;5047481;28;20037;-52
2022/10/15 09:17:26;;;;;;;6.55;3.90;;;20.90;58.40;;;;;;5050312;28;20071;-52
2022/10/15 09:19:54;;;;;;;4.28;3.55;;;20.90;58.30;;;;;;5048525;28;20032;-47
2022/10/15 09:22:25;;;;;;;6.68;4.05;;;20.90;58.30;;;;;;5049980;28;20356;-46
2022/10/15 09:24:52;;;;;;;5.20;3.78;;;20.90;58.20;;;;;;5047923;28;20102;-50
2022/10/15 09:27:37;;;;;;;4.50;3.45;;;21.00;58.30;;;;;;5049441;28;20016;-47
2022/10/15 09:30:11;;;;;;;4.35;3.63;;;21.00;58.10;;;;;;5047046;28;20062;-48
2022/10/15 09:32:57;;;;;;;4.97;3.80;;;21.00;58.10;;;;;;5050667;28;20082;-48
2022/10/15 09:35:52;;;;;;;4.60;3.58;;;21.00;58.00;;;;;;5050812;28;20037;-49
2022/10/15 09:38:34;;;;;;;;;;;21.00;58.50;;;;;;5051625;28;20044;-46
2022/10/15 09:41:29;;;;;;;4.35;3.28;;;21.00;57.90;;;;;;5052098;28;19938;-51
2022/10/15 09:43:57;;;;;;;4.00;3.40;;;21.00;57.90;;;;;;5050046;28;20037;-48
2022/10/15 09:46:27;;;;;;;4.82;3.38;;;21.00;57.90;;;;;;5051928;28;20163;-51
2022/10/15 09:49:10;;;;;;;4.13;3.00;;;21.00;57.80;;;;;;5050501;28;20107;-47
2022/10/15 09:51:43;;;;;;;5.18;3.45;;;21.00;57.80;;;;;;5052335;28;20103;-47
2022/10/15 09:54:30;;;;;;;3.60;2.67;;;21.00;57.80;;;;;;5049722;28;20032;-48
2022/10/15 09:56:56;;;;;;;4.07;3.22;;;21.00;57.80;;;;;;5051455;28;20067;-47
2022/10/15 09:59:24;;;;;;;3.58;2.75;;;21.00;57.80;;;;;;5050769;28;20036;-48
2022/10/15 10:02:03;;;;;;;3.63;2.80;;;21.00;57.80;;;;;;5049759;28;20021;-45
2022/10/15 10:04:31;;;;;;;4.75;2.78;;;21.00;57.80;;;;;;5049518;28;20033;-51
2022/10/15 10:07:03;;;;;;;3.40;2.47;;;21.00;57.80;;;;;;5049322;28;20432;-46
2022/10/15 10:09:33;;;;;;;2.95;2.42;;;21.00;57.80;;;;;;5048781;28;20028;-51
2022/10/15 10:12:03;;;;;;;3.33;2.60;;;21.10;57.80;;;;;;5052343;28;20472;-49
2022/10/15 10:14:31;;;;;;;3.15;2.60;;;21.00;57.80;;;;;;5050502;28;20040;-46
2022/10/15 10:17:17;;;;;;;3.03;2.58;;;21.10;57.80;;;;;;5051415;28;20042;-48
2022/10/15 10:19:44;;;;;;;5.45;2.65;;;21.10;57.90;;;;;;5047320;28;20094;-48
2022/10/15 10:22:19;;;;;;;3.55;2.60;;;21.00;57.90;;;;;;5052585;28;20068;-46
2022/10/15 10:24:46;;;;;;;2.45;2.25;;;21.10;57.90;;;;;;5049282;28;20020;-46
2022/10/15 10:27:19;;;;;;;2.38;2.15;;;21.10;58.00;;;;;;5051732;28;20045;-48
2022/10/15 10:29:51;;;;;;;3.53;2.38;;;21.10;58.00;;;;;;5049452;28;20024;-46
2022/10/15 10:32:27;;;;;;;4.40;2.38;;;21.10;58.10;;;;;;5052141;28;20029;-48
2022/10/15 10:34:53;;;;;;;2.70;2.35;;;21.10;58.10;;;;;;5047482;28;20464;-47
2022/10/15 10:37:19;;;;;;;3.90;2.50;;;21.10;58.20;;;;;;5050983;28;20055;-51
2022/10/15 10:39:51;;;;;;;3.10;2.45;;;21.10;58.30;;;;;;5050791;28;20065;-51
2022/10/15 10:42:18;;;;;;;3.47;2.58;;;21.10;58.40;;;;;;5051202;28;20029;-52
2022/10/15 10:44:50;;;;;;;3.40;2.42;;;21.10;58.40;;;;;;5053237;28;20029;-48
2022/10/15 10:47:23;;;;;;;3.28;2.42;;;21.10;58.50;;;;;;5046308;28;20035;-48
2022/10/15 10:49:58;;;;;;;3.53;2.55;;;21.10;58.60;;;;;;5054453;28;20025;-48
2022/10/15 10:52:36;;;;;;;3.35;2.72;;;21.10;58.70;;;;;;5055637;28;20053;-50
2022/10/15 10:55:36;;;;;;;3.58;2.55;;;21.10;58.80;;;;;;5049251;28;20092;-49
2022/10/15 10:58:03;;;;;;;3.00;2.50;;;21.10;58.90;;;;;;5054059;28;20033;-48
2022/10/15 11:00:41;;;;;;;3.72;2.63;;;21.10;58.90;;;;;;5046192;28;20032;-48
2022/10/15 11:03:37;;;;;;;3.55;2.63;;;21.10;59.00;;;;;;5054045;28;20360;-46
2022/10/15 11:06:33;;;;;;;4.03;2.70;;;21.10;59.00;;;;;;5051191;28;20049;-50
2022/10/15 11:09:11;;;;;;;4.65;2.60;;;21.10;59.10;;;;;;5053962;28;20039;-48
2022/10/15 11:11:53;;;;;;;2.92;2.25;;;21.10;59.20;;;;;;5055680;28;20135;-51
2022/10/15 11:14:24;;;;;;;4.10;2.83;;;21.10;59.30;;;;;;5056142;28;20033;-46
2022/10/15 11:17:25;;;;;;;3.63;2.80;;;21.20;59.40;;;;;;5054452;28;20031;-50
2022/10/15 11:19:59;;;;;;;5.70;2.38;;;21.20;59.40;;;;;;5047715;28;20036;-48
2022/10/15 11:22:49;;;;;;;3.65;2.83;;;21.20;59.40;;;;;;5049179;28;20040;-48
2022/10/15 11:25:46;;;;;;;2.72;2.00;;;21.20;59.40;;;;;;5048957;28;20063;-48
2022/10/15 11:28:21;;;;;;;4.07;2.45;;;21.30;59.40;;;;;;5049807;28;20654;-50
2022/10/15 11:30:52;;;;;;;;;;;21.30;59.40;;;;;;5049150;28;20040;-48
2022/10/15 11:33:35;;;;;;;3.63;1.95;;;21.30;59.40;;;;;;5049402;28;19924;-53
2022/10/15 11:36:30;;;;;;;3.08;2.10;;;21.30;59.40;;;;;;5049260;28;20040;-48
2022/10/15 11:39:21;;;;;;;2.83;2.00;;;21.40;59.50;;;;;;5017195;28;20037;-49
2022/10/15 11:42:29;;;;;;;2.63;2.22;;;21.40;59.40;;;;;;5049874;28;20032;-48
2022/10/15 11:45:00;;;;;;;3.00;2.30;;;21.40;59.40;;;;;;5014316;28;20037;-49
2022/10/15 11:48:01;;;;;;;2.22;1.65;;;21.50;59.50;;;;;;5048857;28;20021;-52
2022/10/15 11:50:39;;;;;;;3.20;1.85;;;21.50;59.40;;;;;;5031352;28;20033;-52
2022/10/15 11:53:23;;;;;;;4.05;1.80;;;21.50;59.40;;;;;;5050799;28;20477;-54
2022/10/15 11:56:02;;;;;;;2.22;1.80;;;21.50;59.40;;;;;;5049955;28;20041;-52
2022/10/15 11:58:36;;;;;;;2.33;1.58;;;21.60;59.40;;;;;;5046227;28;20025;-51
2022/10/15 12:01:06;;;;;;;;;;;21.60;59.40;;;;;;5042882;28;20463;-49
2022/10/15 12:03:39;;;;;;;2.45;1.55;;;21.60;59.40;;;;;;5050628;28;19924;-51
2022/10/15 12:06:09;;;;;;;2.33;1.58;;;21.60;59.40;;;;;;5048311;28;20021;-47
2022/10/15 12:08:40;;;;;;;1.95;1.40;;;21.60;59.90;;;;;;5048724;28;20036;-52
2022/10/15 12:11:21;;;;;;;1.48;1.17;;;21.70;59.40;;;;;;5048520;28;20033;-50
2022/10/15 12:14:00;;;;;;;1.75;1.30;;;21.70;59.30;;;;;;5046146;28;20524;-51
2022/10/15 12:16:40;;;;;;;2.00;1.20;;;21.80;59.40;;;;;;5052896;28;20570;-53
2022/10/15 12:19:19;;;;;;;1.42;1.10;;;21.80;59.40;;;;;;5046986;28;20087;-51
2022/10/15 12:21:54;;;;;;;1.58;1.20;;;21.80;59.30;;;;;;5046259;28;20098;-50
2022/10/15 12:24:38;;;;;;;1.30;1.08;;;21.80;59.40;;;;;;5049501;28;20029;-50
2022/10/15 12:27:17;;;;;;;2.30;1.23;;;21.80;59.50;;;;;;5048438;28;20032;-49
2022/10/15 12:29:44;;;;;;;1.45;1.27;;;21.90;59.60;;;;;;5045154;28;20421;-52
2022/10/15 12:32:26;;;;;;;1.48;1.08;;;21.80;59.60;;;;;;5045781;28;20035;-48
2022/10/15 12:34:56;;;;;;;3.55;1.02;;;21.80;59.60;;;;;;5047924;28;20045;-51
2022/10/15 12:37:25;;;;;;;4.28;1.20;;;21.80;59.80;;;;;;5044465;28;20053;-51
2022/10/15 12:39:56;;;;;;;1.90;0.90;;;21.80;59.90;;;;;;5047074;28;20326;-49
2022/10/15 12:42:31;;;;;;;3.72;0.70;;;21.80;60.00;;;;;;5045638;28;20539;-48
2022/10/15 12:45:01;;;;;;;1.67;1.05;;;21.90;60.00;;;;;;5047730;28;20049;-48
2022/10/15 12:47:52;;;;;;;1.65;0.90;;;21.90;59.90;;;;;;5046263;28;20033;-52
2022/10/15 12:50:23;;;;;;;2.65;1.00;;;21.90;59.90;;;;;;5046448;28;20037;-52
2022/10/15 12:53:01;;;;;;;2.28;1.00;;;21.90;59.90;;;;;;5047990;28;20032;-53
2022/10/15 12:55:34;;;;;;;2.47;0.82;;;21.90;59.90;;;;;;5047924;28;20040;-50
2022/10/15 12:58:21;;;;;;;1.30;0.80;;;21.90;59.90;;;;;;5045847;28;20339;-49
2022/10/15 13:00:47;;;;;;;1.55;1.00;;;21.90;60.00;;;;;;5034408;28;20052;-48
2022/10/15 13:03:31;;;;;;;1.20;0.80;;;21.90;60.00;;;;;;5048637;28;20037;-49
2022/10/15 13:06:21;;;;;;;5.97;1.08;;;21.90;60.10;;;;;;5049902;28;20025;-51
2022/10/15 13:09:10;;;;;;;1.05;0.70;;;21.80;60.10;;;;;;5046249;28;20021;-51
2022/10/15 13:11:42;;;;;;;1.40;0.77;;;21.90;60.20;;;;;;5051600;28;20053;-47
2022/10/15 13:14:10;;;;;;;1.80;0.77;;;21.80;60.10;;;;;;5051321;28;20098;-50